KBNA/BNA METAR and TAF weather

Enter ICAO airport designator
Station Type Date Time Source
KBNA METAR 2023/02/05 22:53 UTC NOAA

KBNA 052253Z 23005KT 10SM SCT050 BKN060 14/04 A3011 RMK AO2 SLP195 T01440039 $


Station Type Date Time Source
KBNA Decoded METAR 2023/02/05 22:53 UTC NOAA

NASHVILLE INTERNATIONAL AIRPORT, TN, United States (KBNA) 36-07N 086-41W 210M
Feb 05, 2023 - 05:53 PM EST / 2023.02.05 2253 UTC
Wind: from the SW (230 degrees) at 6 MPH (5 KT):0
Visibility: 10 mile(s):0
Sky conditions: mostly cloudy
Temperature: 57.9 F (14.4 C)
Dew Point: 39.0 F (3.9 C)
Relative Humidity: 49%
Pressure (altimeter): 30.11 in. Hg (1019 hPa)
ob: KBNA 052253Z 23005KT 10SM SCT050 BKN060 14/04 A3011 RMK AO2 SLP195 T01440039
cycle: 23

Station Type Date Time Source
KBNA TAF 2023/02/05 18:22 UTC NOAA

TAF KBNA 051720Z 0518/0618 21010G20KT P6SM BKN250
FM060300 26003KT P6SM BKN250
FM060700 VRB03KT P6SM SCT250
FM061200 10003KT P6SM SKC

Example: see airport list